Time;durP1;ratioP1;P1;durP2;ratioP2;P2;SDS_P1;SDS_P2;PMS_P1;PMS_P2;Temp;Humidity;BMP_temperature;BMP_pressure;BME280_temperature;BME280_humidity;BME280_pressure;Samples;Min_cycle;Max_cycle;Signal;HPM_P1;HPM_P2
2021/06/19 00:02:19;;;;;;;12.05;3.88;;;;;;;;;;5045541;28;20095;-71
2021/06/19 00:04:44;;;;;;;9.35;3.80;;;;;;;;;;5044873;28;20391;-71
2021/06/19 00:07:10;;;;;;;13.02;3.78;;;;;;;;;;5045596;28;20360;-71
2021/06/19 00:09:37;;;;;;;11.52;4.38;;;;;;;;;;5044017;28;20031;-71
2021/06/19 00:12:03;;;;;;;13.00;4.78;;;;;;;;;;5042997;28;20043;-71
2021/06/19 00:14:29;;;;;;;11.35;3.97;;;;;;;;;;5045450;28;20087;-70
2021/06/19 00:16:54;;;;;;;11.30;5.30;;;;;;;;;;5045034;28;20033;-70
2021/06/19 00:19:20;;;;;;;11.60;4.97;;;;;;;;;;5047970;28;20108;-70
2021/06/19 00:21:45;;;;;;;11.95;4.97;;;;;;;;;;5029094;28;20028;-70
2021/06/19 00:24:18;;;;;;;17.15;5.30;;;;;;;;;;5028752;28;20040;-69
2021/06/19 00:26:45;;;;;;;17.00;5.32;;;;;;;;;;5056732;28;20643;-70
2021/06/19 00:29:10;;;;;;;15.50;7.00;;;;;;;;;;5066407;28;20028;-70
2021/06/19 00:31:35;;;;;;;22.92;8.02;;;;;;;;;;5044935;28;20020;-71
2021/06/19 00:34:00;;;;;;;18.63;7.80;;;;;;;;;;5047316;28;20037;-71
2021/06/19 00:36:26;;;;;;;21.27;9.00;;;;;;;;;;5040695;28;20017;-72
2021/06/19 00:38:51;;;;;;;22.58;9.82;;;;;;;;;;5047149;28;20047;-71
2021/06/19 00:41:16;;;;;;;20.58;9.70;;;;;;;;;;5048559;28;20021;-71
2021/06/19 00:43:42;;;;;;;19.58;9.98;;;;;;;;;;5047738;28;20029;-71
2021/06/19 00:46:08;;;;;;;21.08;9.32;;;;;;;;;;5046959;28;20392;-72
2021/06/19 00:48:33;;;;;;;19.88;9.32;;;;;;;;;;5048219;28;20068;-71
2021/06/19 00:50:58;;;;;;;19.33;8.48;;;;;;;;;;5048811;28;20048;-72
2021/06/19 00:53:24;;;;;;;18.60;8.43;;;;;;;;;;5047045;28;20078;-72
2021/06/19 00:55:50;;;;;;;20.13;10.10;;;;;;;;;;5046967;28;20111;-72
2021/06/19 00:58:15;;;;;;;19.40;9.50;;;;;;;;;;5048373;28;20021;-72
2021/06/19 01:00:41;;;;;;;23.15;11.32;;;;;;;;;;5046359;28;20031;-71
2021/06/19 01:03:06;;;;;;;17.58;9.30;;;;;;;;;;5048039;28;20496;-72
2021/06/19 01:05:32;;;;;;;16.33;8.93;;;;;;;;;;5047641;28;20112;-71
2021/06/19 01:07:59;;;;;;;13.27;7.90;;;;;;;;;;5048584;28;20116;-71
2021/06/19 01:10:26;;;;;;;21.23;10.68;;;;;;;;;;5048294;28;20025;-71
2021/06/19 01:12:52;;;;;;;17.40;8.43;;;;;;;;;;5047728;28;20345;-71
2021/06/19 01:15:17;;;;;;;17.50;9.20;;;;;;;;;;5046667;28;20056;-72
2021/06/19 01:17:44;;;;;;;23.48;10.13;;;;;;;;;;5046531;28;20059;-72
2021/06/19 01:20:15;;;;;;;22.23;9.88;;;;;;;;;;5038563;28;20036;-71
2021/06/19 01:22:44;;;;;;;17.40;8.23;;;;;;;;;;5028440;28;20033;-72
2021/06/19 01:25:15;;;;;;;15.52;8.98;;;;;;;;;;5031473;28;20037;-72
2021/06/19 01:27:40;;;;;;;19.42;11.77;;;;;;;;;;5047447;28;20032;-71
2021/06/19 01:30:08;;;;;;;14.27;8.20;;;;;;;;;;5048126;28;20032;-71
2021/06/19 01:32:35;;;;;;;17.17;9.50;;;;;;;;;;5046813;28;20056;-72
2021/06/19 01:35:00;;;;;;;18.65;9.48;;;;;;;;;;5047777;28;20067;-72
2021/06/19 01:37:27;;;;;;;20.48;9.73;;;;;;;;;;5047000;28;20045;-72
2021/06/19 01:40:03;;;;;;;14.65;9.02;;;;;;;;;;5047951;28;20021;-72
2021/06/19 01:42:28;;;;;;;20.88;9.15;;;;;;;;;;5047936;28;20388;-72
2021/06/19 01:44:53;;;;;;;21.77;9.20;;;;;;;;;;5046607;28;20021;-72
2021/06/19 01:47:19;;;;;;;16.10;8.50;;;;;;;;;;5047816;28;20059;-72
2021/06/19 01:49:44;;;;;;;16.75;8.48;;;;;;;;;;5044969;28;20035;-71
2021/06/19 01:52:09;;;;;;;21.02;10.32;;;;;;;;;;5045965;28;20051;-72
2021/06/19 01:54:40;;;;;;;18.08;8.90;;;;;;;;;;5047317;28;20480;-72
2021/06/19 01:57:07;;;;;;;14.23;9.13;;;;;;;;;;5045716;28;20445;-72
2021/06/19 01:59:33;;;;;;;18.35;8.07;;;;;;;;;;5046087;28;20039;-71
2021/06/19 02:01:59;;;;;;;15.90;7.88;;;;;;;;;;5046541;28;20028;-72
2021/06/19 02:04:26;;;;;;;22.35;10.05;;;;;;;;;;5047149;28;20036;-72
2021/06/19 02:06:52;;;;;;;22.08;10.32;;;;;;;;;;5062201;28;20784;-72
2021/06/19 02:09:18;;;;;;;19.58;11.80;;;;;;;;;;5047100;28;20112;-72
2021/06/19 02:11:44;;;;;;;27.27;13.05;;;;;;;;;;5047041;28;20059;-72
2021/06/19 02:14:12;;;;;;;24.17;9.15;;;;;;;;;;5047141;28;20033;-72
2021/06/19 02:16:38;;;;;;;20.80;10.93;;;;;;;;;;5044683;28;20087;-72
2021/06/19 02:19:03;;;;;;;18.33;11.63;;;;;;;;;;5047134;28;20037;-72
2021/06/19 02:21:29;;;;;;;24.75;12.27;;;;;;;;;;5045393;28;20059;-72
2021/06/19 02:23:54;;;;;;;25.88;12.60;;;;;;;;;;5047279;28;20028;-72
2021/06/19 02:26:19;;;;;;;21.35;12.38;;;;;;;;;;5046376;28;20017;-73
2021/06/19 02:28:45;;;;;;;18.23;11.23;;;;;;;;;;5047032;28;20622;-72
2021/06/19 02:31:10;;;;;;;21.25;10.73;;;;;;;;;;5046831;28;20020;-73
2021/06/19 02:33:36;;;;;;;22.67;12.30;;;;;;;;;;5045282;28;20028;-72
2021/06/19 02:36:01;;;;;;;19.52;11.50;;;;;;;;;;5045659;28;20048;-72
2021/06/19 02:38:27;;;;;;;21.92;10.10;;;;;;;;;;5061523;28;20662;-72
2021/06/19 02:40:52;;;;;;;22.35;13.23;;;;;;;;;;5043969;28;20088;-72
2021/06/19 02:43:19;;;;;;;21.50;11.40;;;;;;;;;;5046339;28;20033;-72
2021/06/19 02:45:45;;;;;;;20.45;10.73;;;;;;;;;;5046019;28;20035;-72
2021/06/19 02:48:10;;;;;;;23.13;11.15;;;;;;;;;;5045186;28;20025;-72
2021/06/19 02:50:39;;;;;;;17.30;9.68;;;;;;;;;;5046619;28;20449;-71
2021/06/19 02:53:05;;;;;;;21.73;10.80;;;;;;;;;;5045127;28;20033;-70
2021/06/19 02:55:36;;;;;;;20.40;11.05;;;;;;;;;;5046117;28;20021;-70
2021/06/19 02:58:03;;;;;;;24.33;12.77;;;;;;;;;;5052627;28;20109;-71
2021/06/19 03:00:28;;;;;;;30.77;14.63;;;;;;;;;;5043015;28;20659;-71
2021/06/19 03:02:54;;;;;;;17.15;10.43;;;;;;;;;;5039923;28;20109;-70
2021/06/19 03:05:22;;;;;;;20.00;10.73;;;;;;;;;;5040411;28;20062;-70
2021/06/19 03:07:48;;;;;;;20.15;11.40;;;;;;;;;;5060167;28;20128;-71
2021/06/19 03:10:19;;;;;;;18.05;12.27;;;;;;;;;;5058445;28;20025;-71
2021/06/19 03:12:45;;;;;;;;;;;;;;;;;;5041675;28;20064;-71
2021/06/19 03:15:11;;;;;;;22.52;13.52;;;;;;;;;;5024858;28;19909;-71
2021/06/19 03:17:37;;;;;;;24.88;14.25;;;;;;;;;;5043995;28;20128;-71
2021/06/19 03:20:05;;;;;;;19.38;11.65;;;;;;;;;;5045399;28;20586;-71
2021/06/19 03:22:43;;;;;;;21.08;12.82;;;;;;;;;;5044670;28;20053;-71
2021/06/19 03:25:10;;;;;;;17.27;11.00;;;;;;;;;;5045105;28;20526;-71
2021/06/19 03:27:35;;;;;;;21.40;12.75;;;;;;;;;;5045933;28;20564;-71
2021/06/19 03:30:01;;;;;;;19.52;11.95;;;;;;;;;;5043944;28;20151;-71
2021/06/19 03:32:26;;;;;;;23.63;11.77;;;;;;;;;;5042114;28;21609;-71
2021/06/19 03:34:51;;;;;;;21.63;12.07;;;;;;;;;;5032160;28;20290;-71
2021/06/19 03:37:17;;;;;;;23.10;13.48;;;;;;;;;;5043447;28;20035;-71
2021/06/19 03:39:42;;;;;;;22.17;13.55;;;;;;;;;;5043404;28;20040;-68
2021/06/19 03:42:07;;;;;;;25.65;14.23;;;;;;;;;;5042795;28;20021;-68
2021/06/19 03:44:33;;;;;;;32.13;18.40;;;;;;;;;;5043433;28;20629;-68
2021/06/19 03:46:58;;;;;;;22.45;13.88;;;;;;;;;;5043083;28;20048;-68
2021/06/19 03:49:24;;;;;;;28.58;16.27;;;;;;;;;;5041626;28;20036;-68
2021/06/19 03:51:49;;;;;;;17.52;12.57;;;;;;;;;;5044464;28;20086;-68
2021/06/19 03:54:15;;;;;;;19.60;12.73;;;;;;;;;;5047302;28;20044;-68
2021/06/19 03:56:40;;;;;;;17.15;11.75;;;;;;;;;;5047167;28;20036;-68
2021/06/19 03:59:06;;;;;;;19.35;12.45;;;;;;;;;;5047856;28;20509;-68
2021/06/19 04:01:31;;;;;;;31.48;15.93;;;;;;;;;;5046667;28;20052;-68
2021/06/19 04:03:57;;;;;;;19.83;13.30;;;;;;;;;;5049520;28;20691;-68
2021/06/19 04:06:22;;;;;;;24.20;14.05;;;;;;;;;;5049007;28;20087;-68
2021/06/19 04:08:47;;;;;;;22.17;14.32;;;;;;;;;;5049353;28;20512;-68
2021/06/19 04:11:16;;;;;;;27.25;16.95;;;;;;;;;;5049732;28;20116;-67
2021/06/19 04:13:42;;;;;;;20.85;13.73;;;;;;;;;;5050243;28;20044;-68
2021/06/19 04:16:09;;;;;;;19.10;11.10;;;;;;;;;;5048062;28;20029;-67
2021/06/19 04:18:36;;;;;;;16.85;11.45;;;;;;;;;;5048721;28;20172;-68
2021/06/19 04:21:01;;;;;;;19.85;14.07;;;;;;;;;;5047087;28;20078;-68
2021/06/19 04:23:26;;;;;;;25.30;15.13;;;;;;;;;;5049351;28;20028;-68
2021/06/19 04:25:52;;;;;;;22.52;14.90;;;;;;;;;;5047939;28;20158;-68
2021/06/19 04:28:17;;;;;;;19.88;13.75;;;;;;;;;;5064556;28;20116;-68
2021/06/19 04:30:43;;;;;;;18.85;11.63;;;;;;;;;;5049012;28;20021;-68
2021/06/19 04:33:08;;;;;;;20.40;11.20;;;;;;;;;;5045165;28;20203;-68
2021/06/19 04:35:33;;;;;;;21.13;11.73;;;;;;;;;;5046283;28;20029;-68
2021/06/19 04:37:59;;;;;;;15.82;10.45;;;;;;;;;;5046908;28;20411;-67
2021/06/19 04:43:27;;;;;;;14.82;9.55;;;;;;;;;;5047153;28;20040;-67
2021/06/19 04:45:42;;;;;;;19.08;9.77;;;;;;;;;;5045963;28;20041;-68
2021/06/19 04:48:08;;;;;;;13.23;8.38;;;;;;;;;;5045765;28;20050;-68
2021/06/19 04:50:36;;;;;;;11.30;7.25;;;;;;;;;;5046437;28;20021;-68
2021/06/19 04:53:03;;;;;;;16.42;7.30;;;;;;;;;;5046746;28;20032;-68
2021/06/19 04:55:29;;;;;;;11.30;7.18;;;;;;;;;;5045976;28;20036;-67
2021/06/19 05:40:08;;;;;;;11.93;6.53;;;;;;;;;;4967175;28;20053;-78
2021/06/19 05:42:34;;;;;;;10.23;5.95;;;;;;;;;;4974933;28;20528;-78
2021/06/19 05:44:59;;;;;;;14.73;6.05;;;;;;;;;;4979477;28;20163;-78
2021/06/19 05:47:24;;;;;;;10.15;6.25;;;;;;;;;;4980211;28;20485;-77
2021/06/19 05:49:50;;;;;;;12.75;5.97;;;;;;;;;;4981202;28;20022;-77
2021/06/19 05:52:15;;;;;;;10.07;6.25;;;;;;;;;;4985971;28;20023;-77
2021/06/19 05:54:41;;;;;;;14.15;5.93;;;;;;;;;;4982868;28;20484;-77
2021/06/19 05:57:07;;;;;;;10.85;6.90;;;;;;;;;;4984703;28;20088;-77
2021/06/19 05:59:33;;;;;;;12.32;6.30;;;;;;;;;;4986117;28;20036;-76
2021/06/19 06:01:58;;;;;;;12.35;6.53;;;;;;;;;;4984980;28;20401;-77
2021/06/19 06:04:24;;;;;;;14.50;6.95;;;;;;;;;;4984973;28;20054;-77
2021/06/19 06:06:49;;;;;;;9.00;6.28;;;;;;;;;;4985229;28;20089;-78
2021/06/19 06:09:15;;;;;;;10.65;5.90;;;;;;;;;;4983332;28;20041;-77
2021/06/19 06:11:40;;;;;;;11.77;5.78;;;;;;;;;;4982119;28;20505;-77
2021/06/19 06:14:08;;;;;;;10.43;5.55;;;;;;;;;;4980325;28;20030;-77
2021/06/19 06:16:34;;;;;;;8.23;5.53;;;;;;;;;;4984847;28;20034;-77
2021/06/19 06:18:59;;;;;;;10.68;6.03;;;;;;;;;;5000357;28;20708;-77
2021/06/19 06:21:25;;;;;;;12.20;6.25;;;;;;;;;;4985068;28;20027;-77
2021/06/19 06:23:51;;;;;;;11.07;6.03;;;;;;;;;;4985623;28;20027;-77
2021/06/19 06:26:16;;;;;;;8.88;5.65;;;;;;;;;;4985618;28;20390;-77
2021/06/19 06:28:43;;;;;;;11.50;5.70;;;;;;;;;;4983964;28;20030;-77
2021/06/19 06:31:08;;;;;;;11.70;5.65;;;;;;;;;;4982291;28;20105;-77
2021/06/19 06:33:33;;;;;;;7.82;5.28;;;;;;;;;;4986806;28;20113;-77
2021/06/19 06:35:58;;;;;;;10.30;6.20;;;;;;;;;;4983385;28;20030;-77
2021/06/19 06:38:24;;;;;;;14.52;5.63;;;;;;;;;;4980144;28;20022;-77
2021/06/19 06:40:49;;;;;;;7.22;5.22;;;;;;;;;;4974501;28;20488;-78
2021/06/19 06:43:14;;;;;;;8.60;4.57;;;;;;;;;;4977608;28;20611;-77
2021/06/19 06:45:40;;;;;;;10.98;4.78;;;;;;;;;;4982105;28;20085;-77
2021/06/19 06:48:06;;;;;;;10.45;5.32;;;;;;;;;;4984976;28;20018;-77
2021/06/19 06:50:32;;;;;;;7.25;4.32;;;;;;;;;;4983652;28;20034;-77
2021/06/19 06:52:57;;;;;;;10.13;4.60;;;;;;;;;;4979495;28;20030;-77
2021/06/19 06:55:23;;;;;;;9.52;4.85;;;;;;;;;;4984401;28;20673;-77
2021/06/19 06:57:48;;;;;;;8.25;4.57;;;;;;;;;;4983794;28;20657;-78
2021/06/19 07:00:14;;;;;;;8.48;4.90;;;;;;;;;;4982498;28;20030;-77
2021/06/19 07:02:41;;;;;;;10.63;5.22;;;;;;;;;;4979622;28;20109;-78
2021/06/19 07:05:08;;;;;;;9.10;4.93;;;;;;;;;;4984210;28;20106;-78
2021/06/19 07:07:34;;;;;;;10.18;5.03;;;;;;;;;;4983173;28;20130;-79
2021/06/19 07:09:59;;;;;;;6.65;3.90;;;;;;;;;;4986349;28;20121;-78
2021/06/19 07:12:24;;;;;;;7.75;4.57;;;;;;;;;;4985300;28;20113;-78
2021/06/19 07:14:50;;;;;;;12.07;4.10;;;;;;;;;;4983244;28;20015;-79
2021/06/19 07:17:15;;;;;;;7.32;3.80;;;;;;;;;;4967292;28;20050;-77
2021/06/19 07:19:40;;;;;;;8.35;4.65;;;;;;;;;;4987051;28;20034;-78
2021/06/19 07:22:08;;;;;;;6.47;4.38;;;;;;;;;;4985754;28;20400;-78
2021/06/19 07:24:34;;;;;;;8.85;4.45;;;;;;;;;;4974850;28;20023;-78
2021/06/19 07:26:59;;;;;;;9.23;4.10;;;;;;;;;;4965851;28;20253;-78
2021/06/19 07:29:25;;;;;;;12.90;4.70;;;;;;;;;;4965900;28;20453;-78
2021/06/19 07:31:50;;;;;;;9.43;4.30;;;;;;;;;;4967332;28;20046;-78
2021/06/19 07:34:16;;;;;;;8.90;4.40;;;;;;;;;;4966694;28;20023;-78
2021/06/19 07:36:43;;;;;;;8.43;4.63;;;;;;;;;;4966906;28;20027;-78
2021/06/19 07:39:08;;;;;;;7.10;4.38;;;;;;;;;;4985865;28;20389;-79
2021/06/19 07:41:34;;;;;;;13.13;4.88;;;;;;;;;;4985724;28;21282;-78
2021/06/19 07:43:59;;;;;;;11.43;4.65;;;;;;;;;;4981536;28;20088;-79
2021/06/19 07:46:25;;;;;;;10.60;4.65;;;;;;;;;;4985261;28;20033;-78
2021/06/19 07:48:50;;;;;;;7.30;4.43;;;;;;;;;;4982399;28;20030;-76
2021/06/19 07:51:15;;;;;;;10.02;4.30;;;;;;;;;;4975144;28;20030;-76
2021/06/19 07:53:41;;;;;;;8.13;4.50;;;;;;;;;;4967034;28;20022;-76
2021/06/19 07:56:06;;;;;;;9.07;4.45;;;;;;;;;;4996844;28;20030;-74
2021/06/19 07:58:32;;;;;;;11.50;4.97;;;;;;;;;;5005699;28;20597;-77
2021/06/19 08:00:57;;;;;;;10.55;5.03;;;;;;;;;;4999946;28;20084;-76
2021/06/19 08:03:22;;;;;;;9.95;5.00;;;;;;;;;;4990445;28;20056;-77
2021/06/19 08:05:48;;;;;;;9.80;5.03;;;;;;;;;;4989075;28;20030;-76
2021/06/19 08:08:13;;;;;;;10.07;4.70;;;;;;;;;;5000090;28;20080;-77
2021/06/19 08:10:39;;;;;;;6.13;4.13;;;;;;;;;;5001033;28;20026;-77
2021/06/19 08:13:04;;;;;;;10.52;4.50;;;;;;;;;;5003501;28;20073;-77
2021/06/19 08:15:33;;;;;;;9.43;4.57;;;;;;;;;;5003783;28;20084;-77
2021/06/19 08:17:58;;;;;;;9.27;4.30;;;;;;;;;;4994721;28;20186;-76
2021/06/19 08:20:24;;;;;;;11.40;4.43;;;;;;;;;;4994378;28;20026;-77
2021/06/19 08:22:49;;;;;;;8.23;4.82;;;;;;;;;;4987835;28;20026;-76
2021/06/19 08:25:15;;;;;;;8.75;4.43;;;;;;;;;;4993368;28;20018;-76
2021/06/19 08:27:40;;;;;;;8.40;4.53;;;;;;;;;;5000041;28;20033;-76
2021/06/19 08:30:07;;;;;;;8.10;4.75;;;;;;;;;;5001883;28;20091;-76
2021/06/19 08:32:32;;;;;;;14.45;4.78;;;;;;;;;;4989322;28;20065;-76
2021/06/19 08:34:58;;;;;;;7.80;4.82;;;;;;;;;;4988660;28;20053;-76
2021/06/19 08:37:23;;;;;;;8.23;4.97;;;;;;;;;;4987335;28;20046;-75
2021/06/19 08:39:48;;;;;;;9.77;5.30;;;;;;;;;;5005124;28;20044;-76
2021/06/19 08:42:14;;;;;;;9.07;4.95;;;;;;;;;;5006058;28;20026;-76
2021/06/19 08:44:44;;;;;;;11.35;4.72;;;;;;;;;;5005153;28;20455;-76
2021/06/19 08:47:09;;;;;;;11.03;5.00;;;;;;;;;;4992986;28;20122;-76
2021/06/19 08:49:35;;;;;;;10.02;5.53;;;;;;;;;;5005985;28;20117;-76
2021/06/19 08:52:01;;;;;;;8.88;4.55;;;;;;;;;;5005330;28;20104;-77
2021/06/19 08:54:27;;;;;;;8.00;5.18;;;;;;;;;;4989287;28;20223;-77
2021/06/19 08:56:53;;;;;;;7.80;4.55;;;;;;;;;;5002925;28;20613;-77
2021/06/19 08:59:18;;;;;;;13.70;4.93;;;;;;;;;;4993662;28;20029;-77
2021/06/19 09:01:44;;;;;;;15.00;5.03;;;;;;;;;;4996192;28;20158;-76
2021/06/19 09:04:11;;;;;;;7.90;4.50;;;;;;;;;;4996501;28;20060;-76
2021/06/19 09:06:41;;;;;;;8.68;5.35;;;;;;;;;;5007075;28;20661;-76
2021/06/19 09:09:18;;;;;;;12.15;5.20;;;;;;;;;;4990222;28;20468;-76
2021/06/19 09:11:46;;;;;;;9.18;4.75;;;;;;;;;;4986299;28;20073;-77
2021/06/19 09:14:16;;;;;;;11.20;5.57;;;;;;;;;;4987850;28;20108;-76
2021/06/19 09:16:44;;;;;;;9.27;4.93;;;;;;;;;;4986948;28;20105;-77
2021/06/19 09:19:30;;;;;;;7.97;5.20;;;;;;;;;;4987463;28;20030;-77
2021/06/19 09:22:19;;;;;;;8.82;5.40;;;;;;;;;;4986932;28;20034;-76
2021/06/19 09:25:03;;;;;;;10.63;5.35;;;;;;;;;;4987463;28;20037;-76
2021/06/19 09:27:46;;;;;;;8.57;5.13;;;;;;;;;;4985375;28;20029;-77
2021/06/19 09:30:17;;;;;;;9.32;5.18;;;;;;;;;;4987480;28;20034;-77
2021/06/19 09:32:52;;;;;;;10.57;5.28;;;;;;;;;;4987547;28;20038;-77
2021/06/19 09:35:24;;;;;;;10.50;5.32;;;;;;;;;;4987262;28;20126;-77
2021/06/19 09:37:52;;;;;;;9.65;5.50;;;;;;;;;;5003488;28;20033;-77
2021/06/19 09:40:27;;;;;;;11.77;6.00;;;;;;;;;;5005755;28;20088;-77
2021/06/19 09:43:03;;;;;;;9.95;4.82;;;;;;;;;;4997868;28;20085;-77
2021/06/19 09:45:29;;;;;;;12.15;5.60;;;;;;;;;;4995350;28;20084;-76
2021/06/19 09:47:54;;;;;;;9.95;4.97;;;;;;;;;;4997261;28;20026;-77
2021/06/19 09:50:20;;;;;;;10.80;5.50;;;;;;;;;;4996192;28;20038;-76
2021/06/19 09:52:47;;;;;;;9.35;4.57;;;;;;;;;;4997486;28;20034;-76
2021/06/19 09:55:14;;;;;;;11.55;4.68;;;;;;;;;;4995274;28;20050;-77
2021/06/19 09:57:41;;;;;;;10.35;5.00;;;;;;;;;;4985400;28;20050;-77
2021/06/19 10:00:15;;;;;;;10.18;5.05;;;;;;;;;;5006256;28;20096;-76
2021/06/19 10:02:41;;;;;;;9.90;4.95;;;;;;;;;;4999835;28;20030;-78
2021/06/19 10:05:08;;;;;;;10.70;4.55;;;;;;;;;;4990715;28;20022;-78
2021/06/19 10:07:34;;;;;;;9.20;5.07;;;;;;;;;;5001322;28;20030;-78
2021/06/19 10:10:01;;;;;;;10.00;4.70;;;;;;;;;;5012509;28;20507;-77
2021/06/19 10:12:32;;;;;;;12.70;5.63;;;;;;;;;;5007143;28;20034;-78
2021/06/19 10:15:09;;;;;;;8.20;4.95;;;;;;;;;;5004457;28;20022;-79
2021/06/19 10:17:40;;;;;;;9.10;4.72;;;;;;;;;;4994081;28;20033;-78
2021/06/19 10:20:08;;;;;;;13.60;5.28;;;;;;;;;;4992420;28;20161;-79
2021/06/19 10:22:36;;;;;;;10.73;4.93;;;;;;;;;;4986439;28;20029;-78
2021/06/19 10:25:06;;;;;;;7.65;5.05;;;;;;;;;;4997212;28;20025;-78
2021/06/19 10:27:33;;;;;;;12.30;5.25;;;;;;;;;;5006413;28;20022;-78
2021/06/19 10:30:00;;;;;;;9.82;5.15;;;;;;;;;;5002717;28;20410;-77
2021/06/19 10:32:48;;;;;;;11.15;4.90;;;;;;;;;;5002054;28;20093;-75
2021/06/19 10:35:19;;;;;;;8.55;4.80;;;;;;;;;;5001188;28;20504;-77
2021/06/19 10:37:45;;;;;;;;;;;;;;;;;;4997078;28;20081;-75
2021/06/19 10:40:24;;;;;;;7.78;4.63;;;;;;;;;;4992019;28;20366;-74
2021/06/19 10:42:51;;;;;;;11.73;5.60;;;;;;;;;;4995154;28;20053;-73
2021/06/19 10:45:29;;;;;;;13.35;6.68;;;;;;;;;;4994016;28;20046;-75
2021/06/19 10:48:01;;;;;;;14.15;6.28;;;;;;;;;;4984789;28;20061;-74
2021/06/19 10:50:27;;;;;;;10.60;5.65;;;;;;;;;;4982480;28;20124;-74
2021/06/19 10:53:22;;;;;;;13.63;6.10;;;;;;;;;;4995455;28;20488;-75
2021/06/19 10:55:52;;;;;;;10.60;5.00;;;;;;;;;;4987302;28;20041;-74
2021/06/19 10:58:29;;;;;;;13.75;7.25;;;;;;;;;;5000068;28;20025;-75
2021/06/19 11:00:59;;;;;;;13.73;6.38;;;;;;;;;;4999092;28;20030;-74
2021/06/19 11:03:40;;;;;;;13.57;5.30;;;;;;;;;;5003228;28;20029;-75
2021/06/19 11:06:24;;;;;;;12.55;4.60;;;;;;;;;;5002911;28;20026;-76
2021/06/19 11:09:16;;;;;;;9.07;5.22;;;;;;;;;;4997851;28;20021;-75
2021/06/19 11:12:05;;;;;;;9.23;4.90;;;;;;;;;;4980145;28;20109;-74
2021/06/19 11:14:44;;;;;;;16.75;5.50;;;;;;;;;;4991103;28;20029;-74
2021/06/19 11:17:33;;;;;;;13.77;4.78;;;;;;;;;;5001255;28;20088;-74
2021/06/19 11:20:08;;;;;;;15.38;4.80;;;;;;;;;;5002851;28;20044;-74
2021/06/19 11:22:42;;;;;;;10.05;4.88;;;;;;;;;;4991176;28;20113;-73
2021/06/19 11:27:54;;;;;;;15.48;4.68;;;;;;;;;;4988131;28;20038;-74
2021/06/19 11:30:34;;;;;;;11.25;4.93;;;;;;;;;;4995331;28;20026;-74
2021/06/19 11:33:35;;;;;;;12.00;4.85;;;;;;;;;;4984372;28;20045;-74
2021/06/19 11:36:00;;;;;;;13.57;4.88;;;;;;;;;;4965947;28;20053;-75
2021/06/19 11:38:43;;;;;;;11.82;4.97;;;;;;;;;;4976917;28;20046;-73
2021/06/19 11:41:36;;;;;;;8.90;4.90;;;;;;;;;;4975059;28;20030;-76
2021/06/19 11:44:09;;;;;;;12.23;5.00;;;;;;;;;;4966639;28;20038;-75
2021/06/19 11:46:34;;;;;;;14.90;4.95;;;;;;;;;;4977581;28;20498;-76
2021/06/19 11:49:02;;;;;;;14.95;5.15;;;;;;;;;;4979235;28;20030;-74
2021/06/19 11:51:31;;;;;;;12.43;4.97;;;;;;;;;;4982941;28;20030;-73
2021/06/19 11:53:57;;;;;;;16.20;4.53;;;;;;;;;;4979468;28;20030;-73
2021/06/19 11:56:28;;;;;;;9.68;3.58;;;;;;;;;;4982434;28;20037;-75
2021/06/19 11:58:55;;;;;;;14.88;4.82;;;;;;;;;;4974028;28;20711;-73
2021/06/19 12:01:24;;;;;;;10.80;4.78;;;;;;;;;;4982672;28;20124;-73
2021/06/19 12:03:51;;;;;;;10.98;4.82;;;;;;;;;;4978661;28;20484;-73
2021/06/19 12:06:16;;;;;;;13.95;4.78;;;;;;;;;;4982404;28;20675;-73
2021/06/19 12:08:43;;;;;;;13.82;5.05;;;;;;;;;;4977295;28;20569;-74
2021/06/19 12:13:04;;;;;;;12.98;4.72;;;;;;;;;;5158286;27;71955;-70
2021/06/19 12:15:31;;;;;;;12.48;5.38;;;;;;;;;;5136177;27;20039;-70
2021/06/19 12:17:58;;;;;;;14.88;5.15;;;;;;;;;;5141398;27;20128;-70
2021/06/19 12:20:24;;;;;;;12.95;5.68;;;;;;;;;;5126525;27;20030;-70
2021/06/19 12:22:51;;;;;;;14.32;5.32;;;;;;;;;;5141421;27;20027;-73
2021/06/19 12:25:33;;;;;;;10.30;4.78;;;;;;;;;;5141591;27;20133;-71
2021/06/19 12:28:00;;;;;;;12.05;5.18;;;;;;;;;;5129000;27;20752;-71
2021/06/19 12:30:26;;;;;;;12.68;5.20;;;;;;;;;;5133401;27;20102;-72
2021/06/19 12:32:51;;;;;;;17.30;5.47;;;;;;;;;;5136256;27;20672;-72
2021/06/19 12:35:21;;;;;;;14.38;4.90;;;;;;;;;;5139013;27;20443;-72
2021/06/19 12:37:59;;;;;;;11.13;5.13;;;;;;;;;;5138083;27;20046;-73
2021/06/19 12:40:31;;;;;;;10.23;4.40;;;;;;;;;;5131298;27;20099;-73
2021/06/19 12:43:01;;;;;;;9.07;4.50;;;;;;;;;;5141066;27;20023;-72
2021/06/19 12:45:33;;;;;;;;;;;;;;;;;;5141518;27;20034;-74
2021/06/19 12:47:58;;;;;;;10.57;4.43;;;;;;;;;;5138338;27;19918;-73
2021/06/19 12:50:30;;;;;;;14.55;4.80;;;;;;;;;;5141020;27;20035;-72
2021/06/19 12:52:56;;;;;;;12.82;4.25;;;;;;;;;;5123879;27;20027;-70
2021/06/19 12:55:22;;;;;;;11.75;4.28;;;;;;;;;;5131294;27;20048;-73
2021/06/19 12:58:11;;;;;;;12.02;4.80;;;;;;;;;;5124224;27;20169;-72
2021/06/19 13:00:37;;;;;;;10.68;4.85;;;;;;;;;;5141594;27;20078;-72
2021/06/19 13:03:02;;;;;;;14.73;5.20;;;;;;;;;;5135000;27;20483;-70
2021/06/19 13:05:28;;;;;;;10.95;4.35;;;;;;;;;;5133775;27;20023;-70
2021/06/19 13:08:09;;;;;;;11.50;4.63;;;;;;;;;;5128367;27;20023;-71
2021/06/19 13:10:34;;;;;;;10.85;4.53;;;;;;;;;;5124188;27;20027;-70
2021/06/19 13:13:00;;;;;;;7.43;4.18;;;;;;;;;;5140593;27;20672;-71
2021/06/19 13:15:26;;;;;;;13.30;4.55;;;;;;;;;;5139432;27;20051;-72
2021/06/19 13:17:52;;;;;;;9.02;4.50;;;;;;;;;;5130083;27;20019;-71
2021/06/19 13:20:26;;;;;;;10.15;4.97;;;;;;;;;;5131180;27;20110;-71
2021/06/19 13:23:10;;;;;;;9.70;4.53;;;;;;;;;;5133019;27;20023;-72
2021/06/19 13:25:51;;;;;;;11.10;4.28;;;;;;;;;;5106878;27;20502;-71
2021/06/19 13:28:17;;;;;;;12.90;4.57;;;;;;;;;;5119288;27;20038;-70
2021/06/19 13:30:43;;;;;;;11.18;4.90;;;;;;;;;;5111946;27;20083;-70
2021/06/19 13:33:08;;;;;;;12.95;4.60;;;;;;;;;;5112777;27;20035;-72
2021/06/19 13:35:47;;;;;;;11.38;4.50;;;;;;;;;;5110212;27;20028;-71
2021/06/19 13:38:13;;;;;;;12.05;4.95;;;;;;;;;;5115681;27;20023;-71
2021/06/19 13:40:38;;;;;;;9.63;4.30;;;;;;;;;;5111390;27;20026;-71
2021/06/19 13:43:04;;;;;;;10.25;4.20;;;;;;;;;;5119499;27;20765;-71
2021/06/19 13:45:29;;;;;;;10.65;5.15;;;;;;;;;;5116960;27;20042;-71
2021/06/19 13:47:54;;;;;;;11.25;4.72;;;;;;;;;;5123896;27;20031;-71
2021/06/19 13:50:20;;;;;;;16.30;4.87;;;;;;;;;;5125014;27;20050;-71
2021/06/19 13:52:46;;;;;;;11.20;4.30;;;;;;;;;;5109340;27;20380;-71
2021/06/19 13:55:12;;;;;;;15.55;4.57;;;;;;;;;;5108227;27;20325;-72
2021/06/19 13:57:38;;;;;;;11.48;4.03;;;;;;;;;;5119940;27;20854;-72
2021/06/19 14:00:04;;;;;;;12.63;4.30;;;;;;;;;;5114317;27;20223;-72
2021/06/19 14:02:29;;;;;;;12.90;4.45;;;;;;;;;;5112955;27;20106;-73
2021/06/19 14:04:55;;;;;;;11.35;4.00;;;;;;;;;;5111343;27;20592;-74
2021/06/19 14:07:21;;;;;;;12.55;3.90;;;;;;;;;;5121838;27;20662;-74
2021/06/19 14:09:47;;;;;;;10.98;4.00;;;;;;;;;;5114046;27;20015;-74
2021/06/19 14:12:12;;;;;;;11.50;4.85;;;;;;;;;;5122995;27;20066;-73
2021/06/19 14:14:38;;;;;;;13.90;5.07;;;;;;;;;;5104227;28;20031;-73
2021/06/19 14:17:03;;;;;;;11.38;4.68;;;;;;;;;;5106120;27;20050;-74
2021/06/19 14:19:29;;;;;;;11.30;3.45;;;;;;;;;;5117708;27;20059;-72
2021/06/19 14:21:55;;;;;;;11.32;4.40;;;;;;;;;;5123518;27;20144;-73
2021/06/19 14:24:20;;;;;;;12.63;4.28;;;;;;;;;;5118821;27;20110;-72
2021/06/19 14:26:51;;;;;;;15.02;4.53;;;;;;;;;;5116877;27;20027;-71
2021/06/19 14:29:16;;;;;;;12.55;4.05;;;;;;;;;;5124225;27;20069;-70
2021/06/19 14:31:42;;;;;;;11.15;4.18;;;;;;;;;;5124361;27;20055;-73
2021/06/19 14:34:07;;;;;;;12.20;3.90;;;;;;;;;;5115823;27;20027;-71
2021/06/19 14:36:32;;;;;;;10.60;3.83;;;;;;;;;;5119477;27;20027;-72
2021/06/19 14:38:58;;;;;;;11.45;4.43;;;;;;;;;;5123251;27;20023;-72
2021/06/19 14:41:23;;;;;;;9.32;3.90;;;;;;;;;;5124255;27;20019;-72
2021/06/19 14:43:49;;;;;;;12.25;3.83;;;;;;;;;;5124257;27;20054;-72
2021/06/19 14:46:14;;;;;;;9.88;3.88;;;;;;;;;;5121855;27;20023;-74
2021/06/19 14:48:41;;;;;;;8.13;4.00;;;;;;;;;;5124212;27;20098;-73
2021/06/19 14:51:06;;;;;;;10.25;3.95;;;;;;;;;;5116095;27;20027;-73
2021/06/19 14:53:33;;;;;;;11.55;3.53;;;;;;;;;;5110932;27;20028;-72
2021/06/19 14:56:00;;;;;;;15.23;3.88;;;;;;;;;;5118462;27;20110;-73
2021/06/19 14:58:26;;;;;;;10.88;4.10;;;;;;;;;;5123128;27;20488;-72
2021/06/19 15:00:55;;;;;;;16.75;4.32;;;;;;;;;;5116077;27;20049;-72
2021/06/19 15:03:21;;;;;;;12.38;4.07;;;;;;;;;;5115479;27;20095;-72
2021/06/19 15:05:52;;;;;;;12.68;4.07;;;;;;;;;;5124406;27;20442;-71
2021/06/19 15:08:17;;;;;;;13.05;4.38;;;;;;;;;;5117829;27;20023;-71
2021/06/19 15:10:43;;;;;;;13.40;4.45;;;;;;;;;;5112229;27;20776;-74
2021/06/19 15:13:08;;;;;;;15.30;4.05;;;;;;;;;;5122142;27;20809;-73
2021/06/19 15:15:34;;;;;;;11.65;4.13;;;;;;;;;;5113900;27;20102;-73
2021/06/19 15:17:59;;;;;;;10.68;3.83;;;;;;;;;;5115219;27;20110;-73
2021/06/19 15:20:25;;;;;;;10.18;4.13;;;;;;;;;;5113317;27;20654;-73
2021/06/19 15:22:50;;;;;;;11.65;3.90;;;;;;;;;;5112703;27;20034;-73
2021/06/19 15:25:16;;;;;;;13.13;4.13;;;;;;;;;;5107882;27;20020;-73